Station Historical Data
Daily Summary for June 28, 2017 Units:  English    Metric   Both
« Previous Day
Next Day »
Daily Weekly Monthly Yearly Custom
  High: Low: Average:
Temperature: 74.4 °F 55.5 °F 66.1 °F
Dew Point: 60.4 °F 48.1 °F 52.8 °F
Humidity: 83% 42% 64%
Wind Speed: 12.0mph 0.0mph 3.8mph
Wind Gust: 20.0mph - -
Wind- - SW
Pressure: 30.11 in 30.01 in -
Precipitation: 0.00 in    
Historical Graphs
 
 
Tabular Data for June 28, 2017
Time Temperature Dew Point Pressure Wind Wind Speed Wind Gust Humidity Rainfall Rate (Hourly)
00:04 60.9 °F 52.9 °F 30.04 in WSW 2.0 mph 7.0 mph 75% 0.00 in
00:09 60.7 °F 52.7 °F 30.04 in West 1.0 mph 5.0 mph 75% 0.00 in
00:14 60.7 °F 53.1 °F 30.04 in Calm   4.0 mph 76% 0.00 in
00:19 60.9 °F 53.3 °F 30.04 in West 3.0 mph 9.0 mph 76% 0.00 in
00:24 61.0 °F 53.4 °F 30.04 in West 3.0 mph 7.0 mph 76% 0.00 in
00:29 61.1 °F 53.5 °F 30.04 in West 3.0 mph 7.0 mph 76% 0.00 in
00:34 61.4 °F 53.8 °F 30.04 in West 3.0 mph 7.0 mph 76% 0.00 in
00:39 61.6 °F 53.6 °F 30.04 in West 4.0 mph 9.0 mph 75% 0.00 in
00:44 61.7 °F 53.7 °F 30.04 in West 4.0 mph 9.0 mph 75% 0.00 in
00:49 61.7 °F 53.7 °F 30.04 in West 3.0 mph 7.0 mph 75% 0.00 in
00:54 61.9 °F 53.9 °F 30.04 in West 4.0 mph 8.0 mph 75% 0.00 in
00:59 62.0 °F 53.6 °F 30.04 in WSW 6.0 mph 9.0 mph 74% 0.00 in
01:04 62.1 °F 53.7 °F 30.04 in WNW 6.0 mph 9.0 mph 74% 0.00 in
01:09 62.1 °F 53.3 °F 30.04 in WNW 6.0 mph 11.0 mph 73% 0.00 in
01:14 62.0 °F 53.2 °F 30.04 in WNW 2.0 mph 8.0 mph 73% 0.00 in
01:19 61.9 °F 53.1 °F 30.04 in West 1.0 mph 8.0 mph 73% 0.00 in
01:24 61.8 °F 52.7 °F 30.04 in West 2.0 mph 6.0 mph 72% 0.00 in
01:29 61.7 °F 53.0 °F 30.04 in West 3.0 mph 6.0 mph 73% 0.00 in
01:34 61.6 °F 52.9 °F 30.04 in West 2.0 mph 6.0 mph 73% 0.00 in
01:39 61.4 °F 52.7 °F 30.04 in West 2.0 mph 4.0 mph 73% 0.00 in
01:44 61.4 °F 53.0 °F 30.04 in SW 2.0 mph 4.0 mph 74% 0.00 in
01:49 61.3 °F 52.9 °F 30.04 in SW 2.0 mph 5.0 mph 74% 0.00 in
01:54 61.3 °F 52.9 °F 30.04 in WSW 3.0 mph 4.0 mph 74% 0.00 in
01:59 61.3 °F 52.6 °F 30.04 in WSW 2.0 mph 6.0 mph 73% 0.00 in
02:04 61.3 °F 52.6 °F 30.04 in WSW 2.0 mph 4.0 mph 73% 0.00 in
02:09 61.2 °F 52.5 °F 30.04 in Calm   4.0 mph 73% 0.00 in
02:14 61.1 °F 52.4 °F 30.04 in WSW 2.0 mph 6.0 mph 73% 0.00 in
02:19 61.1 °F 52.4 °F 30.04 in WSW 3.0 mph 5.0 mph 73% 0.00 in
02:24 61.1 °F 52.0 °F 30.04 in WSW 2.0 mph 5.0 mph 72% 0.00 in
02:29 61.1 °F 52.0 °F 30.04 in WSW 1.0 mph 4.0 mph 72% 0.00 in
02:34 61.0 °F 52.3 °F 30.04 in WSW 1.0 mph 4.0 mph 73% 0.00 in
02:39 60.7 °F 52.4 °F 30.04 in SW 1.0 mph 4.0 mph 74% 0.00 in
02:44 60.7 °F 52.4 °F 30.04 in WSW 3.0 mph 3.0 mph 74% 0.00 in
02:49 60.6 °F 52.3 °F 30.03 in Calm   3.0 mph 74% 0.00 in
02:54 60.5 °F 52.5 °F 30.03 in SW 1.0 mph 3.0 mph 75% 0.00 in
02:59 60.1 °F 52.5 °F 30.04 in Calm   2.0 mph 76% 0.00 in
03:04 59.5 °F 52.6 °F 30.03 in Calm   3.0 mph 78% 0.00 in
03:09 58.9 °F 52.4 °F 30.04 in Calm   3.0 mph 79% 0.00 in
03:14 58.5 °F 52.4 °F 30.04 in Calm     80% 0.00 in
03:19 58.1 °F 52.3 °F 30.04 in Calm     81% 0.00 in
03:24 57.7 °F 52.2 °F 30.03 in Calm     82% 0.00 in
03:29 57.4 °F 51.9 °F 30.04 in Calm     82% 0.00 in
03:34 57.3 °F 51.9 °F 30.04 in Calm     82% 0.00 in
03:39 57.0 °F 51.9 °F 30.04 in Calm     83% 0.00 in
03:44 57.0 °F 51.9 °F 30.04 in Calm     83% 0.00 in
03:49 57.0 °F 51.9 °F 30.04 in Calm     83% 0.00 in
03:54 57.0 °F 51.9 °F 30.04 in Calm     83% 0.00 in
03:59 57.0 °F 51.6 °F 30.04 in Calm     82% 0.00 in
04:04 56.9 °F 51.5 °F 30.04 in Calm     82% 0.00 in
04:09 56.8 °F 51.4 °F 30.04 in Calm     82% 0.00 in
04:14 56.6 °F 51.2 °F 30.04 in Calm     82% 0.00 in
04:19 56.4 °F 51.0 °F 30.04 in Calm     82% 0.00 in
04:24 56.1 °F 50.7 °F 30.04 in Calm     82% 0.00 in
04:29 55.9 °F 50.5 °F 30.05 in Calm     82% 0.00 in
04:34 55.7 °F 50.6 °F 30.05 in Calm     83% 0.00 in
04:39 55.7 °F 50.3 °F 30.05 in Calm     82% 0.00 in
04:44 55.6 °F 50.2 °F 30.05 in Calm     82% 0.00 in
04:49 55.5 °F 50.1 °F 30.05 in Calm     82% 0.00 in
04:54 55.6 °F 50.2 °F 30.05 in Calm     82% 0.00 in
04:59 55.9 °F 50.5 °F 30.05 in Calm     82% 0.00 in
05:04 56.0 °F 50.3 °F 30.05 in Calm   3.0 mph 81% 0.00 in
05:09 56.2 °F 50.1 °F 30.05 in Calm   3.0 mph 80% 0.00 in
05:14 56.1 °F 50.0 °F 30.05 in Calm   2.0 mph 80% 0.00 in
05:19 56.1 °F 50.0 °F 30.05 in Calm   1.0 mph 80% 0.00 in
05:24 56.1 °F 50.0 °F 30.05 in Calm     80% 0.00 in
05:29 56.1 °F 50.0 °F 30.05 in Calm   3.0 mph 80% 0.00 in
05:34 56.2 °F 50.1 °F 30.05 in South 3.0 mph 3.0 mph 80% 0.00 in
05:39 56.5 °F 50.4 °F 30.06 in SSW 3.0 mph 4.0 mph 80% 0.00 in
05:44 56.9 °F 50.5 °F 30.06 in Calm   4.0 mph 79% 0.00 in
05:49 57.3 °F 50.5 °F 30.06 in SSW 1.0 mph 4.0 mph 78% 0.00 in
05:54 57.5 °F 50.3 °F 30.06 in SSW 2.0 mph 4.0 mph 77% 0.00 in
05:59 57.5 °F 50.0 °F 30.06 in SSW 2.0 mph 4.0 mph 76% 0.00 in
06:04 57.8 °F 49.9 °F 30.06 in SSW 2.0 mph 5.0 mph 75% 0.00 in
06:09 57.8 °F 49.6 °F 30.06 in SSW 2.0 mph 5.0 mph 74% 0.00 in
06:14 57.7 °F 49.5 °F 30.07 in SSW 1.0 mph 5.0 mph 74% 0.00 in
06:19 57.8 °F 49.6 °F 30.07 in SSW 3.0 mph 5.0 mph 74% 0.00 in
06:24 57.9 °F 49.7 °F 30.07 in SSW 1.0 mph 3.0 mph 74% 0.00 in
06:29 58.1 °F 49.5 °F 30.07 in SSW 1.0 mph 3.0 mph 73% 0.00 in
06:34 58.4 °F 49.4 °F 30.07 in SSW 1.0 mph 3.0 mph 72% 0.00 in
06:39 58.6 °F 49.6 °F 30.07 in SW 2.0 mph 5.0 mph 72% 0.00 in
06:44 58.7 °F 49.7 °F 30.07 in SSW 3.0 mph 4.0 mph 72% 0.00 in
06:49 59.0 °F 49.6 °F 30.07 in SSW 3.0 mph 5.0 mph 71% 0.00 in
06:54 59.3 °F 49.9 °F 30.07 in SSW 2.0 mph 5.0 mph 71% 0.00 in
06:59 59.3 °F 49.5 °F 30.07 in SSW 2.0 mph 5.0 mph 70% 0.00 in
07:04 59.4 °F 50.0 °F 30.07 in SSW 1.0 mph 3.0 mph 71% 0.00 in
07:09 59.4 °F 49.6 °F 30.07 in SSW 2.0 mph 3.0 mph 70% 0.00 in
07:14 59.5 °F 50.1 °F 30.07 in South 2.0 mph 4.0 mph 71% 0.00 in
07:19 59.8 °F 50.4 °F 30.08 in SSW 2.0 mph 4.0 mph 71% 0.00 in
07:24 60.0 °F 50.6 °F 30.07 in Calm   3.0 mph 71% 0.00 in
07:29 60.1 °F 50.7 °F 30.07 in SSW 1.0 mph 4.0 mph 71% 0.00 in
07:34 60.4 °F 51.0 °F 30.07 in SSW 2.0 mph 6.0 mph 71% 0.00 in
07:39 60.9 °F 51.0 °F 30.07 in SSW 2.0 mph 6.0 mph 70% 0.00 in
07:44 61.4 °F 51.9 °F 30.08 in SSW 2.0 mph 5.0 mph 71% 0.00 in
07:49 62.0 °F 51.7 °F 30.07 in SSW 2.0 mph 5.0 mph 69% 0.00 in
07:54 62.8 °F 52.5 °F 30.07 in SSW 1.0 mph 5.0 mph 69% 0.00 in
07:59 63.3 °F 53.0 °F 30.07 in SW 1.0 mph 7.0 mph 69% 0.00 in
08:04 64.0 °F 53.6 °F 30.07 in SW 2.0 mph 5.0 mph 69% 0.00 in
08:09 64.7 °F 54.7 °F 30.07 in SW 2.0 mph 8.0 mph 70% 0.00 in
08:14 65.2 °F 54.8 °F 30.07 in WSW 2.0 mph 9.0 mph 69% 0.00 in
08:19 65.6 °F 55.2 °F 30.07 in SW 6.0 mph 8.0 mph 69% 0.00 in
08:24 66.0 °F 55.5 °F 30.07 in WSW 6.0 mph 8.0 mph 69% 0.00 in
08:29 66.3 °F 55.4 °F 30.07 in SW 5.0 mph 12.0 mph 68% 0.00 in
08:34 66.0 °F 55.5 °F 30.08 in SW 5.0 mph 12.0 mph 69% 0.00 in
08:39 66.6 °F 56.1 °F 30.07 in SW 5.0 mph 11.0 mph 69% 0.00 in
08:44 66.9 °F 56.4 °F 30.08 in SW 6.0 mph 11.0 mph 69% 0.00 in
08:49 66.9 °F 56.8 °F 30.08 in SW 6.0 mph 11.0 mph 70% 0.00 in
08:54 66.8 °F 56.3 °F 30.08 in SSW 7.0 mph 10.0 mph 69% 0.00 in
08:59 66.0 °F 55.9 °F 30.09 in SW 5.0 mph 13.0 mph 70% 0.00 in
09:04 66.3 °F 56.6 °F 30.09 in SW 7.0 mph 10.0 mph 71% 0.00 in
09:09 65.7 °F 56.0 °F 30.09 in SW 5.0 mph 14.0 mph 71% 0.00 in
09:14 66.6 °F 57.7 °F 30.09 in West 4.0 mph 11.0 mph 73% 0.00 in
09:19 67.9 °F 58.1 °F 30.09 in SSW 5.0 mph 8.0 mph 71% 0.00 in
09:24 68.2 °F 58.0 °F 30.09 in WSW 6.0 mph 13.0 mph 70% 0.00 in
09:29 68.4 °F 58.6 °F 30.09 in WSW 7.0 mph 13.0 mph 71% 0.00 in
09:34 68.5 °F 59.1 °F 30.09 in SW 7.0 mph 15.0 mph 72% 0.00 in
09:39 69.3 °F 59.5 °F 30.09 in West 7.0 mph 11.0 mph 71% 0.00 in
09:44 68.8 °F 59.0 °F 30.09 in SW 10.0 mph 17.0 mph 71% 0.00 in
09:49 69.0 °F 59.6 °F 30.09 in WSW 6.0 mph 14.0 mph 72% 0.00 in
09:54 68.8 °F 59.4 °F 30.09 in SW 7.0 mph 13.0 mph 72% 0.00 in
09:59 69.5 °F 60.1 °F 30.09 in SW 7.0 mph 14.0 mph 72% 0.00 in
10:04 69.0 °F 60.0 °F 30.09 in SW 7.0 mph 14.0 mph 73% 0.00 in
10:09 69.0 °F 59.2 °F 30.09 in SW 7.0 mph 14.0 mph 71% 0.00 in
10:14 69.6 °F 59.8 °F 30.09 in West 6.0 mph 12.0 mph 71% 0.00 in
10:19 69.9 °F 60.1 °F 30.09 in SW 12.0 mph 14.0 mph 71% 0.00 in
10:24 69.6 °F 60.2 °F 30.09 in WSW 8.0 mph 14.0 mph 72% 0.00 in
10:29 69.8 °F 60.0 °F 30.10 in WSW 7.0 mph 15.0 mph 71% 0.00 in
10:34 69.6 °F 59.8 °F 30.10 in WSW 6.0 mph 17.0 mph 71% 0.00 in
10:39 69.9 °F 59.7 °F 30.10 in SW 11.0 mph 14.0 mph 70% 0.00 in
10:44 69.8 °F 59.2 °F 30.10 in WSW 10.0 mph 13.0 mph 69% 0.00 in
10:49 70.6 °F 59.9 °F 30.10 in WSW 11.0 mph 11.0 mph 69% 0.00 in
10:54 71.0 °F 59.9 °F 30.10 in WSW 7.0 mph 19.0 mph 68% 0.00 in
10:59 71.1 °F 60.0 °F 30.09 in WSW 8.0 mph 19.0 mph 68% 0.00 in
11:04 70.7 °F 60.4 °F 30.10 in WSW 8.0 mph 16.0 mph 70% 0.00 in
11:09 71.0 °F 59.9 °F 30.10 in SW 7.0 mph 16.0 mph 68% 0.00 in
11:14 70.9 °F 59.8 °F 30.10 in WNW 4.0 mph 15.0 mph 68% 0.00 in
11:19 71.6 °F 59.6 °F 30.10 in WSW 7.0 mph 15.0 mph 66% 0.00 in
11:24 72.1 °F 59.2 °F 30.10 in WSW 6.0 mph 15.0 mph 64% 0.00 in
11:29 72.2 °F 59.3 °F 30.10 in WSW 6.0 mph 15.0 mph 64% 0.00 in
11:34 71.5 °F 59.1 °F 30.10 in WSW 7.0 mph 15.0 mph 65% 0.00 in
11:39 72.0 °F 60.0 °F 30.10 in WSW 7.0 mph 18.0 mph 66% 0.00 in
11:44 71.9 °F 58.6 °F 30.10 in WSW 3.0 mph 16.0 mph 63% 0.00 in
11:49 72.2 °F 58.5 °F 30.10 in SW 8.0 mph 13.0 mph 62% 0.00 in
11:54 72.3 °F 57.6 °F 30.10 in WSW 7.0 mph 13.0 mph 60% 0.00 in
11:59 72.5 °F 56.9 °F 30.11 in WSW 7.0 mph 13.0 mph 58% 0.00 in
12:04 72.5 °F 56.4 °F 30.11 in West 8.0 mph 15.0 mph 57% 0.00 in
12:09 72.6 °F 57.9 °F 30.10 in WSW 7.0 mph 13.0 mph 60% 0.00 in
12:14 72.4 °F 58.2 °F 30.10 in SW 7.0 mph 15.0 mph 61% 0.00 in
12:19 72.5 °F 56.9 °F 30.10 in West 9.0 mph 14.0 mph 58% 0.00 in
12:24 72.4 °F 56.3 °F 30.10 in WSW 7.0 mph 15.0 mph 57% 0.00 in
12:29 73.5 °F 57.3 °F 30.10 in WSW 6.0 mph 15.0 mph 57% 0.00 in
12:34 73.2 °F 56.1 °F 30.10 in WSW 6.0 mph 16.0 mph 55% 0.00 in
12:39 73.4 °F 56.7 °F 30.10 in West 5.0 mph 13.0 mph 56% 0.00 in
12:44 72.7 °F 56.6 °F 30.10 in WSW 9.0 mph 15.0 mph 57% 0.00 in
12:49 72.9 °F 55.3 °F 30.10 in SW 7.0 mph 15.0 mph 54% 0.00 in
12:54 73.1 °F 56.5 °F 30.10 in WSW 8.0 mph 17.0 mph 56% 0.00 in
12:59 72.8 °F 56.2 °F 30.10 in WSW 8.0 mph 17.0 mph 56% 0.00 in
13:04 73.0 °F 56.4 °F 30.10 in West 3.0 mph 16.0 mph 56% 0.00 in
13:09 72.8 °F 55.7 °F 30.10 in SW 7.0 mph 17.0 mph 55% 0.00 in
13:14 73.3 °F 57.6 °F 30.10 in West 7.0 mph 15.0 mph 58% 0.00 in
13:19 73.6 °F 55.9 °F 30.10 in SW 4.0 mph 17.0 mph 54% 0.00 in
13:24 74.3 °F 53.3 °F 30.10 in WSW 7.0 mph 17.0 mph 48% 0.00 in
13:29 73.1 °F 54.9 °F 30.10 in WSW 8.0 mph 18.0 mph 53% 0.00 in
13:34 72.9 °F 53.7 °F 30.09 in WSW 9.0 mph 19.0 mph 51% 0.00 in
13:39 73.2 °F 52.3 °F 30.09 in WSW 9.0 mph 19.0 mph 48% 0.00 in
13:44 73.2 °F 54.0 °F 30.10 in WSW 9.0 mph 18.0 mph 51% 0.00 in
13:49 73.5 °F 52.0 °F 30.10 in SW 9.0 mph 18.0 mph 47% 0.00 in
13:54 73.9 °F 53.0 °F 30.10 in SW 6.0 mph 14.0 mph 48% 0.00 in
13:59 73.9 °F 53.0 °F 30.09 in SSW 6.0 mph 14.0 mph 48% 0.00 in
14:04 73.4 °F 52.5 °F 30.10 in SSW 7.0 mph 16.0 mph 48% 0.00 in
14:09 74.0 °F 53.6 °F 30.10 in SSW 12.0 mph 17.0 mph 49% 0.00 in
14:14 73.2 °F 51.8 °F 30.10 in West 5.0 mph 18.0 mph 47% 0.00 in
14:19 73.3 °F 51.3 °F 30.10 in SSW 5.0 mph 17.0 mph 46% 0.00 in
14:24 72.9 °F 50.3 °F 30.10 in SW 8.0 mph 18.0 mph 45% 0.00 in
14:29 72.8 °F 50.8 °F 30.09 in SW 9.0 mph 18.0 mph 46% 0.00 in
14:34 72.7 °F 51.9 °F 30.09 in SW 9.0 mph 17.0 mph 48% 0.00 in
14:39 72.8 °F 50.8 °F 30.09 in SW 9.0 mph 17.0 mph 46% 0.00 in
14:44 73.2 °F 51.2 °F 30.09 in SSE 5.0 mph 18.0 mph 46% 0.00 in
14:49 73.1 °F 51.1 °F 30.09 in South 5.0 mph 16.0 mph 46% 0.00 in
14:54 73.6 °F 50.3 °F 30.09 in SW 8.0 mph 16.0 mph 44% 0.00 in
14:59 73.0 °F 51.0 °F 30.09 in West 5.0 mph 17.0 mph 46% 0.00 in
15:04 73.4 °F 50.8 °F 30.09 in SW 9.0 mph 20.0 mph 45% 0.00 in
15:09 73.5 °F 54.3 °F 30.09 in WSW 10.0 mph 14.0 mph 51% 0.00 in
15:14 74.2 °F 52.1 °F 30.09 in West 4.0 mph 13.0 mph 46% 0.00 in
15:19 74.4 °F 51.1 °F 30.09 in SW 9.0 mph 13.0 mph 44% 0.00 in
15:24 73.3 °F 51.3 °F 30.08 in WSW 7.0 mph 17.0 mph 46% 0.00 in
15:29 73.4 °F 50.8 °F 30.08 in WSW 8.0 mph 17.0 mph 45% 0.00 in
15:34 73.7 °F 51.6 °F 30.08 in WSW 7.0 mph 15.0 mph 46% 0.00 in
15:39 73.7 °F 52.2 °F 30.08 in SSW 7.0 mph 12.0 mph 47% 0.00 in
15:44 72.8 °F 49.6 °F 30.08 in WSW 9.0 mph 15.0 mph 44% 0.00 in
15:49 72.8 °F 50.8 °F 30.08 in SSE 4.0 mph 12.0 mph 46% 0.00 in
15:54 73.1 °F 51.1 °F 30.07 in SW 7.0 mph 13.0 mph 46% 0.00 in
15:59 72.5 °F 48.1 °F 30.06 in SW 7.0 mph 15.0 mph 42% 0.00 in
16:04 73.2 °F 50.0 °F 30.06 in SW 7.0 mph 15.0 mph 44% 0.00 in
16:09 73.8 °F 51.7 °F 30.06 in SW 7.0 mph 10.0 mph 46% 0.00 in
16:14 73.9 °F 51.2 °F 30.07 in WSW 6.0 mph 10.0 mph 45% 0.00 in
16:19 74.0 °F 52.5 °F 30.07 in SW 7.0 mph 16.0 mph 47% 0.00 in
16:24 73.1 °F 52.2 °F 30.06 in SW 7.0 mph 16.0 mph 48% 0.00 in
16:29 72.6 °F 52.9 °F 30.06 in SSE 5.0 mph 14.0 mph 50% 0.00 in
16:34 72.5 °F 51.7 °F 30.06 in WSW 7.0 mph 14.0 mph 48% 0.00 in
16:39 71.9 °F 51.1 °F 30.06 in West 8.0 mph 12.0 mph 48% 0.00 in
16:44 71.8 °F 52.7 °F 30.06 in WSW 7.0 mph 11.0 mph 51% 0.00 in
16:49 72.3 °F 52.6 °F 30.05 in WSW 6.0 mph 12.0 mph 50% 0.00 in
16:54 72.7 °F 51.9 °F 30.06 in SW 6.0 mph 12.0 mph 48% 0.00 in
16:59 72.8 °F 54.1 °F 30.05 in SW 6.0 mph 12.0 mph 52% 0.00 in
17:04 72.9 °F 51.5 °F 30.06 in WSW 6.0 mph 14.0 mph 47% 0.00 in
17:09 71.6 °F 50.9 °F 30.06 in WSW 7.0 mph 14.0 mph 48% 0.00 in
17:14 71.6 °F 52.5 °F 30.06 in WSW 4.0 mph 10.0 mph 51% 0.00 in
17:19 72.2 °F 53.1 °F 30.06 in WSW 6.0 mph 12.0 mph 51% 0.00 in
17:24 71.6 °F 51.4 °F 30.06 in WSW 7.0 mph 14.0 mph 49% 0.00 in
17:29 71.3 °F 51.1 °F 30.06 in WSW 7.0 mph 14.0 mph 49% 0.00 in
17:34 71.2 °F 52.7 °F 30.05 in SW 5.0 mph 9.0 mph 52% 0.00 in
17:39 71.0 °F 52.0 °F 30.05 in West 9.0 mph 14.0 mph 51% 0.00 in
17:44 70.6 °F 51.6 °F 30.05 in WSW 2.0 mph 12.0 mph 51% 0.00 in
17:49 70.6 °F 51.1 °F 30.04 in SW 6.0 mph 12.0 mph 50% 0.00 in
17:54 70.6 °F 49.4 °F 30.04 in WSW 6.0 mph 12.0 mph 47% 0.00 in
17:59 70.8 °F 50.1 °F 30.04 in SW 7.0 mph 12.0 mph 48% 0.00 in
18:04 70.7 °F 48.9 °F 30.04 in West 7.0 mph 12.0 mph 46% 0.00 in
18:09 71.2 °F 49.4 °F 30.04 in SSW 5.0 mph 11.0 mph 46% 0.00 in
18:14 71.3 °F 50.0 °F 30.05 in SW 8.0 mph 15.0 mph 47% 0.00 in
18:19 71.2 °F 50.5 °F 30.04 in WSW 6.0 mph 15.0 mph 48% 0.00 in
18:24 71.1 °F 49.8 °F 30.04 in SW 5.0 mph 12.0 mph 47% 0.00 in
18:29 70.8 °F 49.6 °F 30.03 in SW 6.0 mph 12.0 mph 47% 0.00 in
18:34 70.8 °F 49.6 °F 30.03 in SW 5.0 mph 12.0 mph 47% 0.00 in
18:39 70.6 °F 50.0 °F 30.03 in SW 6.0 mph 12.0 mph 48% 0.00 in
18:44 70.6 °F 51.1 °F 30.03 in WSW 6.0 mph 9.0 mph 50% 0.00 in
18:49 70.6 °F 50.5 °F 30.03 in WSW 4.0 mph 9.0 mph 49% 0.00 in
18:54 70.3 °F 51.3 °F 30.03 in West 5.0 mph 8.0 mph 51% 0.00 in
18:59 70.2 °F 51.2 °F 30.03 in SW 6.0 mph 9.0 mph 51% 0.00 in
19:04 69.8 °F 50.9 °F 30.03 in SSW 2.0 mph 10.0 mph 51% 0.00 in
19:09 69.5 °F 50.6 °F 30.03 in WSW 5.0 mph 12.0 mph 51% 0.00 in
19:14 69.2 °F 51.3 °F 30.03 in SW 5.0 mph 12.0 mph 53% 0.00 in
19:19 69.0 °F 51.7 °F 30.03 in WSW 5.0 mph 8.0 mph 54% 0.00 in
19:24 69.0 °F 52.6 °F 30.03 in SW 4.0 mph 8.0 mph 56% 0.00 in
19:29 68.7 °F 52.8 °F 30.02 in SW 4.0 mph 7.0 mph 57% 0.00 in
19:34 68.4 °F 52.1 °F 30.02 in SW 4.0 mph 8.0 mph 56% 0.00 in
19:39 68.3 °F 52.5 °F 30.02 in SW 4.0 mph 8.0 mph 57% 0.00 in
19:44 68.2 °F 52.9 °F 30.02 in SW 4.0 mph 5.0 mph 58% 0.00 in
19:49 68.1 °F 52.8 °F 30.01 in SSW 3.0 mph 7.0 mph 58% 0.00 in
19:54 67.9 °F 52.1 °F 30.01 in SW 4.0 mph 7.0 mph 57% 0.00 in
19:59 67.8 °F 52.5 °F 30.02 in SW 2.0 mph 4.0 mph 58% 0.00 in
20:04 67.7 °F 51.9 °F 30.02 in SW 3.0 mph 6.0 mph 57% 0.00 in
20:09 67.7 °F 52.4 °F 30.02 in Calm   6.0 mph 58% 0.00 in
20:14 67.6 °F 51.8 °F 30.01 in SSW 2.0 mph 6.0 mph 57% 0.00 in
20:19 67.5 °F 51.2 °F 30.01 in SSW 2.0 mph 5.0 mph 56% 0.00 in
20:24 67.4 °F 51.2 °F 30.01 in SW 2.0 mph 4.0 mph 56% 0.00 in
20:29 67.3 °F 51.1 °F 30.01 in SSW 2.0 mph 6.0 mph 56% 0.00 in
20:34 67.2 °F 51.4 °F 30.01 in SSW 1.0 mph 3.0 mph 57% 0.00 in
20:39 67.0 °F 51.3 °F 30.01 in South 3.0 mph 4.0 mph 57% 0.00 in
20:44 66.9 °F 50.7 °F 30.01 in SW 2.0 mph 4.0 mph 56% 0.00 in
20:49 66.8 °F 51.1 °F 30.01 in SW 2.0 mph 4.0 mph 57% 0.00 in
20:54 66.6 °F 50.9 °F 30.01 in SW 1.0 mph 4.0 mph 57% 0.00 in
20:59 66.5 °F 50.3 °F 30.01 in Calm   5.0 mph 56% 0.00 in
21:04 66.3 °F 50.1 °F 30.01 in Calm   4.0 mph 56% 0.00 in
21:09 66.2 °F 50.0 °F 30.01 in Calm   4.0 mph 56% 0.00 in
21:14 65.9 °F 49.8 °F 30.01 in SSW 1.0 mph 4.0 mph 56% 0.00 in
21:19 65.6 °F 49.5 °F 30.01 in Calm   2.0 mph 56% 0.00 in
21:24 65.5 °F 49.4 °F 30.01 in South 2.0 mph 2.0 mph 56% 0.00 in
21:29 65.4 °F 49.8 °F 30.01 in South 1.0 mph 2.0 mph 57% 0.00 in
21:34 65.2 °F 49.6 °F 30.01 in Calm   4.0 mph 57% 0.00 in
21:39 65.1 °F 49.5 °F 30.02 in Calm   2.0 mph 57% 0.00 in
21:44 65.0 °F 49.9 °F 30.01 in Calm   2.0 mph 58% 0.00 in
21:49 65.0 °F 49.9 °F 30.01 in Calm   2.0 mph 58% 0.00 in
21:54 64.9 °F 49.8 °F 30.01 in Calm   2.0 mph 58% 0.00 in
21:59 64.9 °F 49.8 °F 30.01 in Calm   3.0 mph 58% 0.00 in
22:04 64.9 °F 49.8 °F 30.01 in Calm   3.0 mph 58% 0.00 in
22:09 65.0 °F 50.3 °F 30.01 in SSE 1.0 mph 5.0 mph 59% 0.00 in
22:14 65.2 °F 50.5 °F 30.01 in South 1.0 mph 5.0 mph 59% 0.00 in
22:19 65.1 °F 50.4 °F 30.01 in South 1.0 mph 4.0 mph 59% 0.00 in
22:24 64.9 °F 50.7 °F 30.01 in Calm   2.0 mph 60% 0.00 in
22:29 64.7 °F 50.5 °F 30.01 in Calm     60% 0.00 in
22:34 64.5 °F 50.7 °F 30.01 in Calm     61% 0.00 in
22:39 64.5 °F 50.7 °F 30.01 in Calm     61% 0.00 in
22:44 64.4 °F 50.7 °F 30.01 in Calm     61% 0.00 in
22:49 64.4 °F 50.7 °F 30.01 in Calm     61% 0.00 in
22:54 64.2 °F 50.9 °F 30.01 in Calm     62% 0.00 in
22:59 64.0 °F 50.7 °F 30.01 in Calm     62% 0.00 in
23:04 63.9 °F 51.1 °F 30.01 in Calm     63% 0.00 in
23:09 63.9 °F 51.1 °F 30.01 in Calm     63% 0.00 in
23:14 63.9 °F 51.1 °F 30.02 in Calm     63% 0.00 in
23:19 64.1 °F 51.2 °F 30.01 in Calm     63% 0.00 in
23:24 64.2 °F 51.8 °F 30.01 in Calm     64% 0.00 in
23:29 64.3 °F 51.9 °F 30.01 in Calm     64% 0.00 in
23:34 64.3 °F 51.9 °F 30.02 in Calm     64% 0.00 in
23:39 64.2 °F 51.8 °F 30.01 in South 3.0 mph 3.0 mph 64% 0.00 in
23:44 64.4 °F 52.4 °F 30.01 in South 3.0 mph 3.0 mph 65% 0.00 in
23:49 64.5 °F 52.5 °F 30.01 in South 1.0 mph 3.0 mph 65% 0.00 in
23:54 64.4 °F 52.4 °F 30.01 in South 1.0 mph 3.0 mph 65% 0.00 in
23:59 64.2 °F 52.6 °F 30.01 in South 1.0 mph 3.0 mph 66% 0.00 in
Buffalo, New York, USA
Compliments of Weather Underground - 2.5 mb